createdAt,value
2018-09-10T00:02:06.023Z,15.90
2018-09-10T00:04:34.218Z,15.90
2018-09-10T00:07:02.372Z,15.90
2018-09-10T00:12:04.930Z,15.80
2018-09-10T00:14:33.064Z,15.80
2018-09-10T00:17:01.277Z,15.80
2018-09-10T00:19:30.306Z,15.80
2018-09-10T00:21:58.447Z,15.70
2018-09-10T00:24:26.621Z,15.70
2018-09-10T00:26:54.795Z,15.70
2018-09-10T00:29:22.952Z,15.70
2018-09-10T00:31:51.075Z,15.70
2018-09-10T00:34:19.192Z,15.60
2018-09-10T00:36:47.304Z,15.60
2018-09-10T00:39:15.634Z,15.60
2018-09-10T00:41:43.832Z,15.60
2018-09-10T00:44:11.977Z,15.50
2018-09-10T00:46:40.286Z,15.50
2018-09-10T00:49:08.796Z,15.50
2018-09-10T00:51:36.902Z,15.50
2018-09-10T00:54:05.062Z,15.50
2018-09-10T00:56:33.252Z,15.50
2018-09-10T00:59:01.640Z,15.40
2018-09-10T01:01:29.906Z,15.40
2018-09-10T01:03:58.078Z,15.40
2018-09-10T01:06:27.276Z,15.40
2018-09-10T01:08:55.485Z,15.40
2018-09-10T01:11:23.910Z,15.40
2018-09-10T01:13:52.083Z,15.40
2018-09-10T01:16:21.904Z,15.40
2018-09-10T01:18:50.046Z,15.40
2018-09-10T01:21:18.197Z,15.30
2018-09-10T01:23:46.333Z,15.30
2018-09-10T01:26:14.500Z,15.30
2018-09-10T01:28:42.768Z,15.40
2018-09-10T01:31:11.003Z,15.40
2018-09-10T01:34:44.916Z,15.30
2018-09-10T01:37:13.286Z,15.30
2018-09-10T01:39:41.523Z,15.30
2018-09-10T01:42:09.674Z,15.30
2018-09-10T01:44:37.880Z,15.20
2018-09-10T01:47:06.082Z,15.20
2018-09-10T01:49:34.290Z,15.20
2018-09-10T01:52:02.474Z,15.30
2018-09-10T01:54:30.668Z,15.30
2018-09-10T01:56:58.822Z,15.30
2018-09-10T01:59:26.985Z,15.30
2018-09-10T02:01:55.106Z,15.30
2018-09-10T02:04:23.229Z,15.30
2018-09-10T02:06:51.390Z,15.30
2018-09-10T02:09:19.630Z,15.40
2018-09-10T02:11:47.834Z,15.40
2018-09-10T02:14:15.990Z,15.40
2018-09-10T02:16:44.210Z,15.50
2018-09-10T02:19:12.371Z,15.50
2018-09-10T02:21:40.521Z,15.60
2018-09-10T02:24:08.653Z,15.60
2018-09-10T02:26:36.756Z,15.60
2018-09-10T02:29:06.088Z,15.70
2018-09-10T02:31:34.880Z,15.70
2018-09-10T02:34:03.020Z,15.70
2018-09-10T02:36:31.366Z,15.80
2018-09-10T02:38:59.590Z,15.80
2018-09-10T02:41:28.552Z,15.80
2018-09-10T02:43:56.802Z,15.90
2018-09-10T02:46:24.958Z,15.90
2018-09-10T02:48:53.138Z,15.90
2018-09-10T02:51:21.537Z,15.90
2018-09-10T02:53:50.877Z,15.90
2018-09-10T02:56:19.171Z,15.90
2018-09-10T02:58:47.692Z,15.90
2018-09-10T03:01:15.770Z,15.90
2018-09-10T03:03:43.936Z,15.90
2018-09-10T03:06:12.086Z,15.90
2018-09-10T03:08:40.348Z,15.90
2018-09-10T03:11:08.526Z,15.80
2018-09-10T03:13:36.876Z,15.80
2018-09-10T03:16:05.001Z,15.80
2018-09-10T03:18:33.301Z,15.80
2018-09-10T03:21:01.522Z,15.70
2018-09-10T03:23:29.675Z,15.70
2018-09-10T03:25:57.847Z,15.70
2018-09-10T03:28:26.003Z,15.60
2018-09-10T03:30:54.126Z,15.60
2018-09-10T03:33:22.224Z,15.50
2018-09-10T03:35:50.351Z,15.50
2018-09-10T03:38:18.466Z,15.40
2018-09-10T03:40:46.640Z,15.40
2018-09-10T03:43:16.202Z,15.30
2018-09-10T03:45:44.339Z,15.30
2018-09-10T03:48:12.930Z,15.20
2018-09-10T03:50:41.071Z,15.20
2018-09-10T03:53:09.222Z,15.20
2018-09-10T03:55:37.357Z,15.20
2018-09-10T03:58:05.466Z,15.10
2018-09-10T04:02:55.102Z,15.10
2018-09-10T04:05:24.534Z,15.10
2018-09-10T04:07:52.682Z,15.10
2018-09-10T04:10:20.852Z,15.10
2018-09-10T04:12:49.276Z,15.10
2018-09-10T04:15:17.586Z,15.10
2018-09-10T04:17:45.682Z,15.10
2018-09-10T04:20:15.013Z,15.10
2018-09-10T04:22:43.346Z,15.10
2018-09-10T04:25:11.520Z,15.20
2018-09-10T04:27:39.902Z,15.20
2018-09-10T04:30:11.036Z,15.20
2018-09-10T04:32:39.200Z,15.10
2018-09-10T04:35:07.510Z,15.20
2018-09-10T04:37:35.992Z,15.10
2018-09-10T04:40:04.690Z,15.10
2018-09-10T04:42:32.899Z,15.10
2018-09-10T04:45:01.307Z,15.10
2018-09-10T04:47:29.438Z,15.10
2018-09-10T04:49:57.590Z,15.10
2018-09-10T04:52:25.824Z,15.20
2018-09-10T04:54:54.645Z,15.20
2018-09-10T04:57:22.808Z,15.10
2018-09-10T04:59:50.931Z,15.30
2018-09-10T05:02:19.064Z,15.40
2018-09-10T05:04:47.214Z,15.40
2018-09-10T05:07:15.366Z,15.50
2018-09-10T05:09:43.660Z,15.50
2018-09-10T05:12:11.911Z,15.60
2018-09-10T05:14:40.076Z,15.70
2018-09-10T05:17:08.258Z,15.70
2018-09-10T05:19:36.558Z,15.80
2018-09-10T05:22:05.825Z,15.80
2018-09-10T05:24:34.040Z,15.90
2018-09-10T05:27:02.224Z,15.90
2018-09-10T05:29:30.444Z,15.90
2018-09-10T05:31:58.796Z,16.00
2018-09-10T05:34:27.076Z,16.00
2018-09-10T05:36:55.274Z,16.00
2018-09-10T05:39:23.495Z,16.00
2018-09-10T05:41:51.722Z,16.40
2018-09-10T05:44:19.999Z,16.10
2018-09-10T05:46:48.252Z,16.10
2018-09-10T05:49:16.526Z,16.10
2018-09-10T05:51:44.662Z,16.20
2018-09-10T05:54:16.903Z,16.20
2018-09-10T05:56:45.102Z,16.20
2018-09-10T05:59:13.363Z,16.30
2018-09-10T06:01:41.488Z,16.30
2018-09-10T06:04:09.693Z,16.30
2018-09-10T06:06:38.015Z,16.30
2018-09-10T06:09:06.734Z,16.30
2018-09-10T06:11:35.081Z,16.30
2018-09-10T06:14:03.460Z,16.30
2018-09-10T06:16:32.503Z,16.50
2018-09-10T06:19:00.931Z,16.60
2018-09-10T06:21:29.112Z,16.80
2018-09-10T06:23:59.681Z,17.00
2018-09-10T06:26:27.822Z,17.40
2018-09-10T06:28:56.194Z,17.80
2018-09-10T06:31:24.715Z,18.30
2018-09-10T06:33:53.938Z,18.70
2018-09-10T06:36:22.761Z,18.90
2018-09-10T06:38:51.152Z,19.20
2018-09-10T06:41:19.402Z,19.30
2018-09-10T06:43:48.016Z,19.40
2018-09-10T06:46:16.222Z,19.50
2018-09-10T06:48:45.300Z,19.50
2018-09-10T06:51:13.462Z,19.60
2018-09-10T06:53:41.657Z,19.60
2018-09-10T06:56:09.859Z,19.70
2018-09-10T06:58:38.071Z,19.90
2018-09-10T07:01:06.294Z,20.00
2018-09-10T07:03:34.598Z,20.20
2018-09-10T07:06:02.762Z,20.40
2018-09-10T07:08:30.884Z,20.60
2018-09-10T07:10:59.030Z,20.70
2018-09-10T07:13:27.153Z,20.80
2018-09-10T07:15:55.286Z,20.90
2018-09-10T07:18:23.481Z,20.90
2018-09-10T07:20:51.975Z,21.00
2018-09-10T07:23:20.350Z,21.20
2018-09-10T07:25:48.484Z,21.40
2018-09-10T07:28:16.624Z,21.60
2018-09-10T07:30:44.740Z,21.90
2018-09-10T07:33:12.883Z,22.20
2018-09-10T07:35:43.214Z,22.60
2018-09-10T07:38:11.376Z,22.80
2018-09-10T07:40:40.941Z,23.10
2018-09-10T07:43:09.198Z,23.20
2018-09-10T07:45:38.240Z,23.30
2018-09-10T07:48:06.362Z,23.30
2018-09-10T07:50:34.540Z,23.30
2018-09-10T07:53:02.920Z,23.30
2018-09-10T07:55:31.060Z,23.30
2018-09-10T07:57:59.382Z,23.30
2018-09-10T08:00:27.620Z,23.20
2018-09-10T08:02:55.854Z,23.20
2018-09-10T08:05:24.013Z,23.20
2018-09-10T08:07:53.452Z,23.20
2018-09-10T08:10:21.538Z,23.20
2018-09-10T08:12:49.655Z,23.10
2018-09-10T08:15:17.850Z,23.10
2018-09-10T08:17:47.494Z,23.10
2018-09-10T08:20:15.670Z,23.00
2018-09-10T08:22:43.835Z,23.00
2018-09-10T08:25:12.039Z,23.10
2018-09-10T08:27:40.376Z,23.20
2018-09-10T08:30:08.709Z,23.20
2018-09-10T08:32:37.053Z,23.20
2018-09-10T08:35:05.192Z,23.30
2018-09-10T08:37:33.314Z,23.40
2018-09-10T08:40:02.056Z,23.40
2018-09-10T08:42:30.601Z,23.50
2018-09-10T08:44:59.903Z,23.60
2018-09-10T08:47:29.304Z,23.80
2018-09-10T08:49:57.448Z,24.00
2018-09-10T08:52:25.620Z,24.20
2018-09-10T08:54:55.129Z,24.40
2018-09-10T08:57:22.962Z,24.60
2018-09-10T08:59:51.056Z,24.90
2018-09-10T09:02:19.196Z,25.20
2018-09-10T09:04:47.344Z,25.50
2018-09-10T09:07:17.576Z,25.70
2018-09-10T09:09:45.771Z,25.90
2018-09-10T09:12:13.944Z,25.90
2018-09-10T09:14:42.084Z,26.00
2018-09-10T09:17:10.220Z,26.00
2018-09-10T09:19:38.431Z,26.10
2018-09-10T09:22:06.650Z,26.10
2018-09-10T09:24:35.053Z,26.20
2018-09-10T09:27:03.209Z,26.30
2018-09-10T09:29:32.617Z,26.40
2018-09-10T09:32:01.943Z,26.40
2018-09-10T09:35:00.955Z,26.40
2018-09-10T09:37:34.563Z,26.40
2018-09-10T09:40:08.231Z,26.40
2018-09-10T09:42:41.963Z,26.50
2018-09-10T09:45:15.604Z,26.50
2018-09-10T09:47:44.590Z,26.60
2018-09-10T09:50:12.730Z,26.70
2018-09-10T09:52:40.892Z,26.70
2018-09-10T09:55:09.244Z,26.70
2018-09-10T09:57:37.606Z,26.70
2018-09-10T10:00:10.212Z,26.70
2018-09-10T10:02:43.970Z,26.70
2018-09-10T10:05:12.158Z,26.70
2018-09-10T10:07:40.307Z,26.80
2018-09-10T10:10:08.478Z,27.00
2018-09-10T10:12:36.638Z,27.00
2018-09-10T10:15:04.971Z,27.00
2018-09-10T10:17:33.224Z,27.00
2018-09-10T10:20:01.440Z,27.00
2018-09-10T10:22:29.584Z,27.00
2018-09-10T10:24:57.716Z,27.10
2018-09-10T10:27:25.893Z,27.10
2018-09-10T10:29:54.196Z,27.20
2018-09-10T10:32:22.422Z,27.30
2018-09-10T10:34:50.660Z,27.20
2018-09-10T10:37:21.618Z,27.20
2018-09-10T10:39:49.948Z,27.10
2018-09-10T10:42:18.124Z,27.20
2018-09-10T10:44:46.284Z,27.30
2018-09-10T10:47:14.382Z,27.40
2018-09-10T10:49:44.065Z,27.40
2018-09-10T10:52:12.269Z,27.40
2018-09-10T10:54:45.404Z,27.20
2018-09-10T10:57:13.697Z,27.20
2018-09-10T10:59:41.874Z,27.10
2018-09-10T11:02:10.090Z,27.20
2018-09-10T11:04:38.670Z,27.30
2018-09-10T11:07:07.082Z,27.40
2018-09-10T11:09:35.386Z,27.60
2018-09-10T11:12:03.522Z,27.70
2018-09-10T11:14:31.675Z,27.80
2018-09-10T11:17:01.746Z,27.90
2018-09-10T11:19:30.011Z,28.00
2018-09-10T11:21:58.420Z,28.10
2018-09-10T11:24:26.622Z,28.10
2018-09-10T11:26:55.034Z,28.00
2018-09-10T11:29:23.144Z,27.90
2018-09-10T11:31:51.390Z,27.80
2018-09-10T11:34:19.562Z,27.60
2018-09-10T11:36:49.254Z,27.50
2018-09-10T11:39:17.428Z,27.50
2018-09-10T11:41:45.584Z,27.70
2018-09-10T11:44:13.756Z,27.80
2018-09-10T11:46:41.965Z,27.90
2018-09-10T11:49:10.097Z,28.00
2018-09-10T11:51:38.241Z,28.10
2018-09-10T11:54:06.423Z,28.00
2018-09-10T11:56:35.814Z,27.90
2018-09-10T11:59:04.108Z,27.80
2018-09-10T12:01:33.487Z,27.90
2018-09-10T12:04:01.611Z,28.00
2018-09-10T12:06:29.774Z,28.10
2018-09-10T12:08:58.090Z,28.30
2018-09-10T12:11:26.240Z,28.50
2018-09-10T12:13:54.475Z,28.60
2018-09-10T12:16:22.718Z,28.70
2018-09-10T12:18:50.921Z,28.60
2018-09-10T12:21:19.089Z,28.30
2018-09-10T12:23:47.217Z,28.10
2018-09-10T12:26:15.413Z,28.00
2018-09-10T12:28:43.729Z,28.00
2018-09-10T12:31:11.905Z,27.90
2018-09-10T12:33:40.063Z,27.80
2018-09-10T12:36:08.272Z,27.70
2018-09-10T12:38:36.480Z,27.50
2018-09-10T12:41:05.233Z,27.50
2018-09-10T12:43:33.450Z,27.50
2018-09-10T12:46:01.852Z,27.50
2018-09-10T12:48:31.148Z,27.40
2018-09-10T12:51:00.014Z,27.20
2018-09-10T12:53:28.163Z,27.10
2018-09-10T12:55:57.360Z,27.00
2018-09-10T12:58:25.498Z,27.00
2018-09-10T13:00:53.640Z,27.00
2018-09-10T13:03:22.416Z,26.90
2018-09-10T13:05:50.542Z,26.80
2018-09-10T13:08:19.820Z,26.60
2018-09-10T13:10:48.089Z,26.60
2018-09-10T13:13:16.236Z,26.50
2018-09-10T13:15:44.423Z,26.60
2018-09-10T13:18:12.559Z,26.60
2018-09-10T13:20:40.783Z,26.80
2018-09-10T13:23:08.965Z,26.90
2018-09-10T13:25:37.185Z,27.00
2018-09-10T13:28:05.457Z,27.00
2018-09-10T13:30:33.635Z,26.90
2018-09-10T13:33:02.849Z,26.80
2018-09-10T13:35:31.022Z,26.70
2018-09-10T13:37:59.312Z,26.60
2018-09-10T13:40:27.486Z,26.60
2018-09-10T13:42:55.900Z,26.50
2018-09-10T13:45:24.932Z,26.50
2018-09-10T13:47:53.099Z,26.40
2018-09-10T13:50:21.290Z,26.40
2018-09-10T13:52:57.893Z,26.30
2018-09-10T13:55:26.110Z,26.20
2018-09-10T13:57:54.225Z,26.10
2018-09-10T14:00:22.321Z,26.10
2018-09-10T14:02:50.469Z,26.10
2018-09-10T14:05:18.751Z,26.10
2018-09-10T14:07:46.924Z,26.20
2018-09-10T14:10:15.281Z,26.30
2018-09-10T14:12:43.452Z,26.40
2018-09-10T14:15:11.821Z,26.40
2018-09-10T14:17:40.024Z,26.50
2018-09-10T14:20:08.153Z,26.60
2018-09-10T14:22:36.363Z,26.60
2018-09-10T14:25:04.723Z,26.60
2018-09-10T14:27:33.008Z,26.70
2018-09-10T14:30:01.172Z,26.80
2018-09-10T14:32:29.319Z,26.80
2018-09-10T14:34:57.576Z,26.70
2018-09-10T14:37:25.915Z,26.60
2018-09-10T14:39:54.561Z,26.50
2018-09-10T14:42:22.704Z,26.40
2018-09-10T14:44:50.900Z,26.40
2018-09-10T14:47:19.112Z,26.30
2018-09-10T14:49:47.408Z,26.40
2018-09-10T14:52:15.590Z,26.40
2018-09-10T14:54:43.804Z,26.40
2018-09-10T14:57:12.041Z,26.40
2018-09-10T14:59:40.355Z,26.40
2018-09-10T15:02:08.668Z,26.40
2018-09-10T15:04:36.846Z,26.40
2018-09-10T15:07:05.025Z,26.40
2018-09-10T15:09:33.319Z,26.40
2018-09-10T15:12:01.587Z,26.40
2018-09-10T15:14:29.836Z,26.40
2018-09-10T15:16:58.076Z,26.30
2018-09-10T15:19:26.260Z,26.30
2018-09-10T15:21:54.483Z,26.20
2018-09-10T15:24:22.692Z,26.10
2018-09-10T15:26:51.496Z,25.90
2018-09-10T15:29:19.672Z,25.70
2018-09-10T15:31:47.943Z,25.50
2018-09-10T15:34:16.181Z,25.30
2018-09-10T15:36:44.366Z,25.20
2018-09-10T15:39:12.608Z,25.10
2018-09-10T15:41:42.320Z,25.00
2018-09-10T15:44:10.577Z,24.90
2018-09-10T15:46:38.802Z,24.90
2018-09-10T15:49:07.109Z,24.90
2018-09-10T15:51:35.256Z,24.80
2018-09-10T15:54:03.894Z,24.70
2018-09-10T15:56:32.087Z,24.70
2018-09-10T15:59:00.348Z,24.60
2018-09-10T16:01:28.569Z,24.50
2018-09-10T16:03:56.769Z,24.50
2018-09-10T16:06:25.006Z,24.40
2018-09-10T16:08:53.147Z,24.40
2018-09-10T16:11:21.338Z,24.40
2018-09-10T16:13:50.521Z,24.30
2018-09-10T16:16:18.711Z,24.30
2018-09-10T16:18:46.984Z,24.30
2018-09-10T16:21:15.196Z,24.30
2018-09-10T16:23:43.412Z,24.30
2018-09-10T16:26:11.724Z,24.20
2018-09-10T16:28:39.961Z,24.20
2018-09-10T16:31:08.279Z,24.10
2018-09-10T16:33:36.526Z,24.10
2018-09-10T16:36:05.520Z,24.10
2018-09-10T16:38:33.655Z,24.10
2018-09-10T16:41:01.892Z,24.00
2018-09-10T16:43:30.008Z,23.90
2018-09-10T16:45:58.258Z,23.90
2018-09-10T16:48:26.680Z,23.80
2018-09-10T16:50:55.423Z,23.70
2018-09-10T16:53:23.608Z,23.60
2018-09-10T16:55:51.780Z,23.50
2018-09-10T16:58:20.060Z,23.50
2018-09-10T17:00:48.359Z,23.40
2018-09-10T17:03:16.531Z,23.40
2018-09-10T17:05:46.661Z,23.30
2018-09-10T17:08:14.848Z,23.30
2018-09-10T17:10:42.998Z,23.20
2018-09-10T17:13:11.375Z,23.10
2018-09-10T17:15:39.775Z,23.10
2018-09-10T17:18:08.208Z,23.00
2018-09-10T17:20:37.435Z,22.90
2018-09-10T17:23:06.221Z,22.90
2018-09-10T17:25:34.606Z,22.80
2018-09-10T17:28:02.957Z,22.70
2018-09-10T17:30:31.128Z,22.70
2018-09-10T17:32:59.474Z,22.60
2018-09-10T17:35:27.844Z,22.60
2018-09-10T17:37:56.060Z,22.50
2018-09-10T17:40:24.294Z,22.50
2018-09-10T17:42:52.615Z,22.50
2018-09-10T17:45:20.783Z,22.50
2018-09-10T17:47:49.166Z,22.50
2018-09-10T17:50:19.211Z,22.40
2018-09-10T17:52:47.400Z,22.40
2018-09-10T17:55:15.584Z,22.40
2018-09-10T17:57:44.113Z,22.40
2018-09-10T18:00:12.300Z,22.30
2018-09-10T18:02:40.461Z,22.40
2018-09-10T18:05:08.776Z,22.30
2018-09-10T18:07:37.030Z,22.20
2018-09-10T18:10:06.122Z,22.20
2018-09-10T18:12:34.328Z,22.10
2018-09-10T18:15:02.678Z,22.10
2018-09-10T18:17:30.878Z,22.10
2018-09-10T18:19:59.668Z,22.00
2018-09-10T18:22:27.803Z,22.00
2018-09-10T18:24:56.067Z,22.00
2018-09-10T18:27:24.909Z,21.90
2018-09-10T18:29:53.123Z,21.90
2018-09-10T18:32:21.355Z,21.90
2018-09-10T18:34:49.537Z,21.80
2018-09-10T18:37:17.779Z,21.80
2018-09-10T18:39:46.003Z,21.80
2018-09-10T18:42:14.199Z,21.80
2018-09-10T18:44:42.434Z,21.80
2018-09-10T18:47:10.630Z,21.70
2018-09-10T18:49:40.003Z,21.70
2018-09-10T18:52:08.248Z,21.70
2018-09-10T18:54:36.564Z,21.60
2018-09-10T18:57:04.819Z,21.70
2018-09-10T18:59:33.057Z,21.60
2018-09-10T19:02:01.321Z,21.60
2018-09-10T19:04:29.538Z,21.50
2018-09-10T19:06:57.821Z,21.50
2018-09-10T19:09:26.571Z,21.50
2018-09-10T19:11:54.953Z,21.50
2018-09-10T19:14:23.831Z,21.50
2018-09-10T19:16:52.623Z,21.40
2018-09-10T19:19:20.951Z,21.40
2018-09-10T19:21:49.185Z,21.30
2018-09-10T19:24:18.123Z,21.30
2018-09-10T19:26:46.562Z,21.30
2018-09-10T19:29:14.854Z,21.20
2018-09-10T19:31:43.008Z,21.30
2018-09-10T19:34:11.269Z,21.20
2018-09-10T19:36:40.574Z,21.20
2018-09-10T19:39:10.901Z,21.20
2018-09-10T19:41:39.086Z,21.20
2018-09-10T19:44:07.307Z,21.20
2018-09-10T19:46:35.418Z,21.20
2018-09-10T19:49:03.625Z,21.10
2018-09-10T19:51:31.911Z,21.10
2018-09-10T19:54:00.120Z,21.10
2018-09-10T19:56:28.504Z,21.10
2018-09-10T19:58:56.755Z,21.10
2018-09-10T20:01:25.323Z,21.00
2018-09-10T20:03:54.118Z,21.00
2018-09-10T20:06:22.525Z,20.90
2018-09-10T20:08:51.381Z,20.90
2018-09-10T20:11:19.553Z,20.90
2018-09-10T20:13:47.834Z,20.90
2018-09-10T20:16:16.026Z,20.90
2018-09-10T20:18:44.243Z,20.90
2018-09-10T20:21:12.434Z,20.80
2018-09-10T20:23:41.239Z,20.80
2018-09-10T20:26:09.426Z,20.80
2018-09-10T20:28:37.560Z,20.80
2018-09-10T20:31:08.673Z,20.70
2018-09-10T20:33:42.949Z,20.70
2018-09-10T20:36:11.128Z,20.70
2018-09-10T20:38:40.124Z,20.70
2018-09-10T20:41:08.309Z,20.60
2018-09-10T20:43:36.494Z,20.60
2018-09-10T20:46:04.842Z,20.60
2018-09-10T20:48:33.133Z,20.50
2018-09-10T20:51:01.357Z,20.50
2018-09-10T20:53:29.503Z,20.40
2018-09-10T20:55:57.858Z,20.40
2018-09-10T20:58:26.009Z,20.40
2018-09-10T21:00:54.152Z,20.30
2018-09-10T21:03:22.372Z,20.30
2018-09-10T21:05:51.733Z,20.30
2018-09-10T21:08:20.275Z,20.30
2018-09-10T21:10:48.505Z,20.30
2018-09-10T21:13:16.712Z,20.30
2018-09-10T21:15:44.999Z,20.30
2018-09-10T21:18:14.079Z,20.30
2018-09-10T21:20:42.519Z,20.30
2018-09-10T21:23:11.686Z,20.30
2018-09-10T21:25:39.985Z,20.20
2018-09-10T21:28:08.241Z,20.20
2018-09-10T21:30:36.500Z,20.20
2018-09-10T21:33:04.680Z,20.20
2018-09-10T21:35:33.142Z,20.20
2018-09-10T21:38:01.473Z,20.20
2018-09-10T21:40:30.743Z,20.20
2018-09-10T21:42:58.976Z,20.20
2018-09-10T21:45:28.139Z,20.20
2018-09-10T21:47:57.748Z,20.20
2018-09-10T21:50:25.921Z,20.20
2018-09-10T21:52:55.896Z,20.20
2018-09-10T21:55:25.311Z,20.20
2018-09-10T21:57:53.633Z,20.20
2018-09-10T22:00:22.107Z,20.20
2018-09-10T22:02:50.379Z,20.20
2018-09-10T22:05:18.797Z,20.20
2018-09-10T22:07:46.949Z,20.20
2018-09-10T22:10:15.321Z,20.20
2018-09-10T22:12:43.499Z,20.20
2018-09-10T22:15:11.652Z,20.20
2018-09-10T22:17:40.323Z,20.20
2018-09-10T22:20:08.512Z,20.20
2018-09-10T22:22:36.925Z,20.20
2018-09-10T22:25:05.411Z,20.20
2018-09-10T22:27:33.651Z,20.10
2018-09-10T22:30:01.786Z,20.10
2018-09-10T22:32:30.336Z,20.10
2018-09-10T22:34:59.670Z,20.10
2018-09-10T22:37:27.811Z,20.10
2018-09-10T22:39:55.917Z,20.00
2018-09-10T22:42:25.720Z,20.00
2018-09-10T22:44:54.559Z,20.00
2018-09-10T22:47:22.908Z,20.00
2018-09-10T22:49:51.073Z,20.00
2018-09-10T22:52:19.312Z,20.00
2018-09-10T22:54:47.472Z,20.00
2018-09-10T22:57:15.834Z,20.00
2018-09-10T22:59:43.963Z,20.00
2018-09-10T23:02:12.210Z,20.00
2018-09-10T23:04:40.559Z,20.00
2018-09-10T23:07:08.731Z,19.90
2018-09-10T23:09:37.054Z,19.90
2018-09-10T23:12:05.283Z,19.90
2018-09-10T23:14:33.392Z,19.90
2018-09-10T23:17:01.643Z,19.90
2018-09-10T23:19:29.917Z,19.90
2018-09-10T23:21:58.247Z,19.80
2018-09-10T23:24:26.439Z,19.80
2018-09-10T23:26:54.799Z,19.80
2018-09-10T23:29:22.943Z,19.70
2018-09-10T23:31:51.287Z,19.70
2018-09-10T23:34:19.427Z,19.70
2018-09-10T23:36:47.726Z,19.60
2018-09-10T23:39:15.969Z,19.60
2018-09-10T23:41:44.091Z,19.50
2018-09-10T23:44:12.237Z,19.50
2018-09-10T23:46:40.551Z,19.50
2018-09-10T23:49:08.748Z,19.40
2018-09-10T23:51:36.938Z,19.40
2018-09-10T23:54:06.866Z,19.30
2018-09-10T23:56:35.043Z,19.30
2018-09-10T23:59:03.236Z,19.20
